FIN4TR EFHK-YSSY
Flight info
| Callsign | FIN4TR |
|---|---|
| Flight time | N/A |
| Altitude | 34000 |
| Route | KOIVU Y123 LARTI DCT LUTAL DCT BERIL/N0497F330 DCT BOKSU/N0490F340 DCT TOXAR DCT ROBTU/N0492F330 DCT KENIN DCT SAT DCT DINRO DCT UDROS UM859 RUVOM/N0490F350 UM859 KARDE UN644 ROLIN N644 LAGAS M747 SUBUT T923 ERLEV L850 BAKUV N701 LARGI B701 KRS A240 INRAK B449 RANAH L750 VELDT/N0488F370 L750 ZB G202 RK P628 IBANI L510 GURVI T1 BBS L759 KASVI/N0488F390 L759 PUT B579 VPL Y503 RINBA Y507 MAKNA Y511 TOPOR A464 SJ B470 ANITO DCT 0439S10751E/N0482F410 0657S10917E DCT SAPDA A585 PD T21 LEC J141 NEWMO DCT NODEK DCT VELGI Y105 TARAL Y59 RIVET |
| Aircraft | A359/H-SDE2E3GHIJ3J4J5LM1ORWXY/LB1D1 |
Departure
| Time | N/A |
|---|---|
| Airport | Helsinki Vantaa Airport (EFHK) |
Arrival
| Time | 2026-05-04 10:34 |
|---|---|
| Airport | Sydney Kingsford Smith International Airport (YSSY) |
| Time | Latitude | Longitude | Altitude | Speed | Heading |
|---|---|---|---|---|---|
| 2026-05-04 09:31 | -32.03248 | 143.52052 | 38321 ft | 535 kts | 126° |
| 2026-05-04 09:31 | -32.05237 | 143.55819 | 38057 ft | 547 kts | 117° |
| 2026-05-04 09:32 | -32.06928 | 143.59874 | 37799 ft | 557 kts | 114° |
| 2026-05-04 09:32 | -32.08467 | 143.64064 | 37537 ft | 562 kts | 111° |
| 2026-05-04 09:34 | -32.18090 | 143.94294 | 37119 ft | 563 kts | 109° |
| 2026-05-04 09:34 | -32.19465 | 143.98621 | 37115 ft | 563 kts | 109° |
| 2026-05-04 09:34 | -32.22214 | 144.07269 | 37116 ft | 562 kts | 109° |
| 2026-05-04 09:35 | -32.24960 | 144.15931 | 37116 ft | 562 kts | 109° |
| 2026-05-04 09:35 | -32.27696 | 144.24591 | 37116 ft | 562 kts | 109° |
| 2026-05-04 09:37 | -32.38572 | 144.59267 | 37115 ft | 564 kts | 109° |
| 2026-05-04 09:38 | -32.41271 | 144.67934 | 37112 ft | 564 kts | 109° |
| 2026-05-04 09:38 | -32.43978 | 144.76648 | 37119 ft | 564 kts | 109° |
| 2026-05-04 09:39 | -32.46680 | 144.85373 | 37117 ft | 564 kts | 109° |
| 2026-05-04 09:39 | -32.48989 | 144.92847 | 37116 ft | 564 kts | 109° |
| 2026-05-04 09:40 | -32.51671 | 145.01550 | 37111 ft | 564 kts | 109° |
| 2026-05-04 09:40 | -32.54359 | 145.10302 | 37112 ft | 565 kts | 109° |
| 2026-05-04 09:42 | -32.65042 | 145.45321 | 37114 ft | 565 kts | 109° |
| 2026-05-04 09:43 | -32.67704 | 145.54111 | 37104 ft | 565 kts | 108° |
| 2026-05-04 09:43 | -32.70361 | 145.62909 | 37116 ft | 566 kts | 108° |
| 2026-05-04 09:44 | -32.73011 | 145.71714 | 37113 ft | 566 kts | 108° |
| 2026-05-04 09:46 | -32.83492 | 146.06934 | 37108 ft | 566 kts | 108° |
| 2026-05-04 09:46 | -32.86086 | 146.15785 | 37108 ft | 567 kts | 108° |
| 2026-05-04 09:47 | -32.88681 | 146.24652 | 37109 ft | 567 kts | 108° |
| 2026-05-04 09:49 | -32.98984 | 146.60105 | 37107 ft | 567 kts | 108° |
| 2026-05-04 09:51 | -33.07927 | 146.91229 | 37107 ft | 567 kts | 107° |
| 2026-05-04 09:51 | -33.10466 | 147.00129 | 37105 ft | 567 kts | 107° |
| 2026-05-04 09:52 | -33.12984 | 147.08979 | 37107 ft | 567 kts | 107° |
| 2026-05-04 09:52 | -33.15514 | 147.17901 | 37109 ft | 567 kts | 107° |
| 2026-05-04 09:53 | -33.18038 | 147.26830 | 37112 ft | 567 kts | 107° |
| 2026-05-04 09:53 | -33.20557 | 147.35764 | 37111 ft | 567 kts | 107° |
| 2026-05-04 09:54 | -33.23067 | 147.44701 | 37111 ft | 568 kts | 107° |
| 2026-05-04 09:54 | -33.25577 | 147.53662 | 37111 ft | 568 kts | 107° |
| 2026-05-04 09:55 | -33.28077 | 147.62614 | 37115 ft | 568 kts | 107° |
| 2026-05-04 09:55 | -33.30569 | 147.71566 | 37116 ft | 568 kts | 107° |
| 2026-05-04 09:56 | -33.33060 | 147.80543 | 37114 ft | 568 kts | 107° |
| 2026-05-04 09:56 | -33.35635 | 147.89473 | 37109 ft | 568 kts | 114° |
| 2026-05-04 09:56 | -33.37507 | 147.93570 | 37111 ft | 566 kts | 126° |
| 2026-05-04 09:57 | -33.39927 | 147.97262 | 37116 ft | 563 kts | 133° |
| 2026-05-04 09:57 | -33.45144 | 148.04252 | 37112 ft | 562 kts | 136° |
| 2026-05-04 09:58 | -33.50502 | 148.11098 | 37109 ft | 562 kts | 136° |
| 2026-05-04 09:58 | -33.55805 | 148.17909 | 37118 ft | 562 kts | 136° |
| 2026-05-04 10:00 | -33.76927 | 148.45508 | 37118 ft | 561 kts | 135° |
| 2026-05-04 10:02 | -33.95289 | 148.69705 | 36782 ft | 565 kts | 135° |
| 2026-05-04 10:04 | -34.13896 | 148.94390 | 34154 ft | 564 kts | 134° |
| 2026-05-04 10:04 | -34.16530 | 148.97896 | 33682 ft | 561 kts | 134° |
| 2026-05-04 10:04 | -34.19142 | 149.01374 | 33197 ft | 557 kts | 134° |
| 2026-05-04 10:04 | -34.21740 | 149.04841 | 32663 ft | 553 kts | 134° |
| 2026-05-04 10:05 | -34.24307 | 149.08270 | 32198 ft | 548 kts | 133° |
| 2026-05-04 10:05 | -34.26854 | 149.11678 | 31713 ft | 543 kts | 133° |
| 2026-05-04 10:05 | -34.29340 | 149.15010 | 31256 ft | 538 kts | 133° |
| 2026-05-04 10:05 | -34.31832 | 149.18353 | 30810 ft | 533 kts | 133° |
| 2026-05-04 10:06 | -34.34308 | 149.21673 | 30352 ft | 529 kts | 133° |
| 2026-05-04 10:06 | -34.36768 | 149.24974 | 29850 ft | 525 kts | 132° |
| 2026-05-04 10:06 | -34.39199 | 149.28242 | 29321 ft | 520 kts | 132° |
| 2026-05-04 10:08 | -34.43432 | 149.51606 | 25948 ft | 472 kts | 71° |
| 2026-05-04 10:08 | -34.42786 | 149.55502 | 25424 ft | 469 kts | 71° |
| 2026-05-04 10:08 | -34.42145 | 149.59368 | 24892 ft | 467 kts | 71° |
| 2026-05-04 10:08 | -34.41510 | 149.63205 | 24373 ft | 464 kts | 71° |
| 2026-05-04 10:09 | -34.40876 | 149.67030 | 23865 ft | 463 kts | 71° |
| 2026-05-04 10:09 | -34.40237 | 149.70869 | 23334 ft | 468 kts | 71° |
| 2026-05-04 10:09 | -34.39595 | 149.74734 | 22787 ft | 468 kts | 72° |
| 2026-05-04 10:09 | -34.38957 | 149.78582 | 22251 ft | 464 kts | 72° |
| 2026-05-04 10:10 | -34.38326 | 149.82395 | 21706 ft | 460 kts | 72° |
| 2026-05-04 10:10 | -34.37699 | 149.86168 | 21175 ft | 455 kts | 72° |
| 2026-05-04 10:10 | -34.37313 | 149.89969 | 20626 ft | 459 kts | 85° |
| 2026-05-04 10:10 | -34.37755 | 149.93730 | 20116 ft | 452 kts | 103° |
| 2026-05-04 10:11 | -34.38896 | 149.97257 | 19555 ft | 437 kts | 111° |
| 2026-05-04 10:11 | -34.40137 | 150.00489 | 19020 ft | 421 kts | 112° |
| 2026-05-04 10:11 | -34.41359 | 150.03640 | 18479 ft | 405 kts | 111° |
| 2026-05-04 10:11 | -34.42295 | 150.06806 | 17895 ft | 396 kts | 101° |
| 2026-05-04 10:12 | -34.42654 | 150.10068 | 17306 ft | 387 kts | 83° |
| 2026-05-04 10:12 | -34.42307 | 150.13205 | 16698 ft | 364 kts | 65° |
| 2026-05-04 10:12 | -34.41278 | 150.15899 | 16125 ft | 343 kts | 53° |
| 2026-05-04 10:12 | -34.40103 | 150.18363 | 15536 ft | 331 kts | 52° |
| 2026-05-04 10:13 | -34.38956 | 150.20722 | 15091 ft | 318 kts | 52° |
| 2026-05-04 10:13 | -34.37830 | 150.23021 | 14877 ft | 318 kts | 52° |
| 2026-05-04 10:13 | -34.36707 | 150.25305 | 14644 ft | 315 kts | 52° |
| 2026-05-04 10:13 | -34.35612 | 150.27549 | 14406 ft | 312 kts | 52° |
| 2026-05-04 10:14 | -34.34511 | 150.29808 | 14151 ft | 311 kts | 52° |
| 2026-05-04 10:14 | -34.33417 | 150.32057 | 13922 ft | 310 kts | 53° |
| 2026-05-04 10:16 | -34.26256 | 150.47015 | 12457 ft | 306 kts | 55° |
| 2026-05-04 10:16 | -34.25261 | 150.49274 | 12196 ft | 304 kts | 55° |
| 2026-05-04 10:16 | -34.24264 | 150.51522 | 11942 ft | 302 kts | 55° |
| 2026-05-04 10:16 | -34.23271 | 150.53753 | 11698 ft | 301 kts | 55° |
| 2026-05-04 10:17 | -34.22276 | 150.55981 | 11451 ft | 300 kts | 55° |
| 2026-05-04 10:17 | -34.21288 | 150.58189 | 11206 ft | 298 kts | 55° |
| 2026-05-04 10:19 | -34.14430 | 150.73469 | 9769 ft | 293 kts | 56° |
| 2026-05-04 10:19 | -34.13453 | 150.75631 | 9620 ft | 293 kts | 55° |
| 2026-05-04 10:19 | -34.12476 | 150.77794 | 9409 ft | 293 kts | 55° |
| 2026-05-04 10:19 | -34.11503 | 150.79951 | 9146 ft | 292 kts | 55° |
| 2026-05-04 10:20 | -34.10534 | 150.82097 | 8965 ft | 291 kts | 55° |
| 2026-05-04 10:20 | -34.09571 | 150.84238 | 8776 ft | 290 kts | 55° |
| 2026-05-04 10:20 | -34.08613 | 150.86373 | 8536 ft | 289 kts | 55° |
| 2026-05-04 10:20 | -34.07654 | 150.88501 | 8263 ft | 288 kts | 55° |
| 2026-05-04 10:21 | -34.06701 | 150.90615 | 7994 ft | 287 kts | 55° |
| 2026-05-04 10:21 | -34.05750 | 150.92724 | 7723 ft | 286 kts | 54° |
| 2026-05-04 10:21 | -34.04800 | 150.94829 | 7447 ft | 285 kts | 55° |
| 2026-05-04 10:21 | -34.03877 | 150.96902 | 7194 ft | 285 kts | 57° |
| 2026-05-04 10:22 | -34.03566 | 151.01663 | 6631 ft | 304 kts | 110° |
| 2026-05-04 10:22 | -34.04762 | 151.03766 | 6343 ft | 306 kts | 131° |
| 2026-05-04 10:22 | -34.06233 | 151.05620 | 6020 ft | 305 kts | 133° |
| 2026-05-04 10:23 | -34.07814 | 151.07314 | 5741 ft | 305 kts | 146° |
| 2026-05-04 10:23 | -34.09760 | 151.08254 | 5497 ft | 300 kts | 168° |
| 2026-05-04 10:25 | -34.21567 | 151.16209 | 3686 ft | 277 kts | 162° |
| 2026-05-04 10:25 | -34.23361 | 151.16776 | 3374 ft | 263 kts | 168° |
| 2026-05-04 10:25 | -34.25091 | 151.17303 | 3081 ft | 249 kts | 162° |
| 2026-05-04 10:25 | -34.26476 | 151.18361 | 2996 ft | 231 kts | 127° |
| 2026-05-04 10:26 | -34.27154 | 151.20064 | 2999 ft | 223 kts | 93° |
| 2026-05-04 10:26 | -34.26980 | 151.21816 | 2999 ft | 202 kts | 58° |
| 2026-05-04 10:26 | -34.26103 | 151.23026 | 2992 ft | 188 kts | 29° |
| 2026-05-04 10:26 | -34.24994 | 151.23854 | 2993 ft | 187 kts | 24° |
| 2026-05-04 10:27 | -34.23832 | 151.24554 | 2974 ft | 185 kts | 12° |
| 2026-05-04 10:27 | -34.22578 | 151.24694 | 2999 ft | 180 kts | 355° |
| 2026-05-04 10:27 | -34.21331 | 151.24529 | 2992 ft | 180 kts | 349° |
| 2026-05-04 10:27 | -34.20094 | 151.24242 | 2995 ft | 182 kts | 346° |
| 2026-05-04 10:28 | -34.18874 | 151.23921 | 2993 ft | 172 kts | 347° |
| 2026-05-04 10:28 | -34.17728 | 151.23617 | 3007 ft | 168 kts | 346° |
| 2026-05-04 10:28 | -34.16578 | 151.23315 | 3000 ft | 170 kts | 346° |
| 2026-05-04 10:28 | -34.15424 | 151.23015 | 2999 ft | 169 kts | 345° |
| 2026-05-04 10:29 | -34.14269 | 151.22715 | 2994 ft | 171 kts | 346° |
| 2026-05-04 10:29 | -34.13118 | 151.22417 | 2998 ft | 171 kts | 346° |
| 2026-05-04 10:29 | -34.11964 | 151.22116 | 2994 ft | 169 kts | 347° |
| 2026-05-04 10:29 | -34.10821 | 151.21818 | 2873 ft | 167 kts | 348° |
| 2026-05-04 10:30 | -34.09709 | 151.21529 | 2658 ft | 161 kts | 347° |
| 2026-05-04 10:30 | -34.08625 | 151.21245 | 2431 ft | 156 kts | 346° |
| 2026-05-04 10:30 | -34.07588 | 151.20973 | 2221 ft | 148 kts | 347° |
| 2026-05-04 10:30 | -34.06610 | 151.20718 | 2026 ft | 139 kts | 348° |
| 2026-05-04 10:31 | -34.05681 | 151.20475 | 1839 ft | 133 kts | 348° |
| 2026-05-04 10:31 | -34.04799 | 151.20245 | 1680 ft | 127 kts | 349° |
| 2026-05-04 10:32 | -33.99608 | 151.18892 | 673 ft | 129 kts | 348° |
| 2026-05-04 10:33 | -33.98732 | 151.18663 | 509 ft | 129 kts | 349° |
| 2026-05-04 10:33 | -33.97862 | 151.18437 | 350 ft | 125 kts | 351° |
| 2026-05-04 10:33 | -33.97011 | 151.18215 | 182 ft | 126 kts | 351° |
| 2026-05-04 10:33 | -33.96149 | 151.17987 | 42 ft | 126 kts | 350° |
| 2026-05-04 10:34 | -33.95398 | 151.17798 | 28 ft | 74 kts | 347° |
| 2026-05-04 10:34 | -33.94994 | 151.17693 | 27 ft | 52 kts | 348° |
| 2026-05-04 10:34 | -33.94676 | 151.17610 | 30 ft | 40 kts | 347° |
| 2026-05-04 10:34 | -33.94447 | 151.17484 | 30 ft | 34 kts | 321° |
| 2026-05-04 10:35 | -33.94389 | 151.17423 | 31 ft | 0 kts | 316° |
| 2026-05-04 10:36 | -33.94376 | 151.17407 | 31 ft | 8 kts | 315° |
| 2026-05-04 10:37 | -33.94307 | 151.17330 | 30 ft | 19 kts | 321° |
| 2026-05-04 10:37 | -33.94155 | 151.17271 | 28 ft | 26 kts | 348° |
| 2026-05-04 10:37 | -33.94042 | 151.17241 | 27 ft | 0 kts | 347° |
| 2026-05-04 10:37 | -33.94038 | 151.17240 | 27 ft | 1 kts | 347° |
| 2026-05-04 10:39 | -33.94040 | 151.16934 | 27 ft | 13 kts | 254° |
| 2026-05-04 10:39 | -33.94058 | 151.16828 | 27 ft | 11 kts | 276° |
| 2026-05-04 10:39 | -33.94017 | 151.16747 | 27 ft | 12 kts | 305° |
| 2026-05-04 10:40 | -33.93981 | 151.16684 | 27 ft | 7 kts | 304° |
| 2026-05-04 10:40 | -33.93980 | 151.16682 | 27 ft | 0 kts | 304° |